Saint Marie, Montana
Current Conditions -  °F | °C
As of 2:53 AM on Monday 22 Dec 2014 (Local Time) from KGGW Reporting Station
Overcast Overcast  
Wind Chill: -6°   Ceiling: 1900
Heat Index:   Visibility: 10mi
Dew Point: -3°   Wind: 22mph
Humidity: 78%   Direction: 300°WNW
Pressure: 29.56"   Gusts: 30mph
Location:  48.4°N, 106.55°W
Report Text: KGGW 220953Z AUTO 30019G26KT 10SM OVC019 01/M03 A2956 RMK AO2 PK WND 30034/0901 SNE00 SLP034 P0000 T00061028
Loading
Personal Weather Stations






























Interactive Weather Map New forecast layout! Learn more

10-Day Weather Forecast

Advertisements
Track Severe Weather on mobile